Time;durP1;ratioP1;P1;durP2;ratioP2;P2;SDS_P1;SDS_P2;PMS_P1;PMS_P2;Temp;Humidity;BMP_temperature;BMP_pressure;BME280_temperature;BME280_humidity;BME280_pressure;Samples;Min_cycle;Max_cycle;Signal;HPM_P1;HPM_P2
2023/03/06 00:00:16;;;;;;;2.50;1.85;;;;;9.70;100698.00;;;;5046843;28;20203;-75
2023/03/06 00:02:43;;;;;;;2.50;1.70;;;;;9.70;100693.00;;;;5049013;28;20196;-75
2023/03/06 00:05:11;;;;;;;2.33;1.45;;;;;9.70;100689.00;;;;5042809;28;20196;-75
2023/03/06 00:07:38;;;;;;;2.90;1.80;;;;;9.60;100687.00;;;;5035614;28;20420;-75
2023/03/06 00:10:06;;;;;;;2.85;1.65;;;;;9.60;100674.00;;;;5048260;28;20195;-75
2023/03/06 00:12:34;;;;;;;2.35;1.75;;;;;9.60;100679.00;;;;5047515;28;20203;-75
2023/03/06 00:15:01;;;;;;;1.67;1.23;;;;;9.60;100680.00;;;;5048638;28;20200;-75
2023/03/06 00:17:29;;;;;;;2.88;2.00;;;;;9.50;100673.00;;;;5048523;28;20208;-75
2023/03/06 00:19:57;;;;;;;3.47;1.90;;;;;9.50;100674.00;;;;5047120;28;20223;-75
2023/03/06 00:22:24;;;;;;;2.60;1.65;;;;;9.50;100668.00;;;;5044477;28;20205;-75
2023/03/06 00:24:53;;;;;;;2.58;1.92;;;;;9.50;100664.00;;;;5047677;28;20214;-75
2023/03/06 00:27:23;;;;;;;2.42;1.80;;;;;9.50;100666.00;;;;5048129;28;20606;-75
2023/03/06 00:29:55;;;;;;;2.80;1.95;;;;;9.40;100666.00;;;;5047846;28;20214;-75
2023/03/06 00:32:22;;;;;;;2.85;2.08;;;;;9.50;100659.00;;;;5048002;28;20195;-75
2023/03/06 00:34:51;;;;;;;3.65;2.30;;;;;9.40;100655.00;;;;5048035;28;20749;-75
2023/03/06 00:37:19;;;;;;;3.53;2.63;;;;;9.40;100651.00;;;;5046801;28;20577;-75
2023/03/06 00:39:48;;;;;;;2.90;2.42;;;;;9.40;100653.00;;;;5046512;28;20210;-75
2023/03/06 00:42:16;;;;;;;3.97;2.70;;;;;9.40;100651.00;;;;5047797;28;20206;-75
2023/03/06 00:44:43;;;;;;;2.78;2.35;;;;;9.40;100649.00;;;;5046267;28;20693;-75
2023/03/06 00:47:11;;;;;;;3.28;2.22;;;;;9.40;100639.00;;;;5043326;28;20216;-75
2023/03/06 00:49:38;;;;;;;4.75;2.65;;;;;9.40;100640.00;;;;5046347;28;20213;-75
2023/03/06 00:52:07;;;;;;;3.10;2.33;;;;;9.40;100634.00;;;;5046658;28;20208;-75
2023/03/06 00:54:34;;;;;;;2.55;2.05;;;;;9.40;100637.00;;;;5038447;28;20662;-75
2023/03/06 00:57:02;;;;;;;3.53;2.30;;;;;9.40;100625.00;;;;5036559;28;20669;-75
2023/03/06 00:59:29;;;;;;;2.65;2.30;;;;;9.40;100625.00;;;;5042610;28;20218;-75
2023/03/06 01:01:56;;;;;;;3.15;2.42;;;;;9.40;100622.00;;;;5042300;28;20195;-75
2023/03/06 01:04:24;;;;;;;2.97;2.45;;;;;9.40;100617.00;;;;5047380;28;20207;-75
2023/03/06 01:06:51;;;;;;;4.45;2.60;;;;;9.40;100615.00;;;;5047986;28;20231;-75
2023/03/06 01:09:20;;;;;;;3.95;2.70;;;;;9.30;100611.00;;;;5045231;28;20192;-75
2023/03/06 01:11:47;;;;;;;4.35;2.85;;;;;9.30;100607.00;;;;5042944;28;20234;-75
2023/03/06 01:14:17;;;;;;;4.10;2.67;;;;;9.30;100603.00;;;;5036646;28;20661;-75
2023/03/06 01:16:45;;;;;;;3.63;2.60;;;;;9.30;100604.00;;;;5047736;28;20205;-75
2023/03/06 01:19:13;;;;;;;3.45;2.72;;;;;9.30;100595.00;;;;5047186;28;20212;-75
2023/03/06 01:21:40;;;;;;;3.55;2.83;;;;;9.30;100594.00;;;;5046403;28;21765;-75
2023/03/06 01:24:08;;;;;;;4.35;2.67;;;;;9.30;100588.00;;;;5043408;28;20204;-75
2023/03/06 01:26:36;;;;;;;2.90;2.53;;;;;9.30;100589.00;;;;5044031;28;20216;-75
2023/03/06 01:29:05;;;;;;;3.83;3.42;;;;;9.30;100591.00;;;;5036753;28;20769;-75
2023/03/06 01:31:32;;;;;;;4.57;3.47;;;;;9.30;100587.00;;;;5044625;28;20200;-75
2023/03/06 01:33:59;;;;;;;5.65;4.22;;;;;9.20;100587.00;;;;5047727;28;20215;-75
2023/03/06 01:36:27;;;;;;;5.60;3.70;;;;;9.20;100588.00;;;;5046654;28;20206;-75
2023/03/06 01:38:54;;;;;;;4.60;3.42;;;;;9.20;100587.00;;;;5047597;28;20192;-75
2023/03/06 01:41:21;;;;;;;5.15;3.88;;;;;9.20;100589.00;;;;5044595;28;21027;-75
2023/03/06 01:43:50;;;;;;;5.47;4.07;;;;;9.20;100593.00;;;;5048221;28;20200;-75
2023/03/06 01:46:36;;;;;;;4.82;4.03;;;;;9.10;100591.00;;;;5030364;28;20204;-75
2023/03/06 01:49:08;;;;;;;5.28;3.55;;;;;9.20;100587.00;;;;5045310;28;20628;-75
2023/03/06 01:51:39;;;;;;;5.10;4.03;;;;;9.10;100590.00;;;;5038458;28;20200;-75
2023/03/06 01:54:11;;;;;;;6.53;4.40;;;;;9.10;100586.00;;;;5045228;28;20208;-75
2023/03/06 01:56:41;;;;;;;6.03;4.63;;;;;9.10;100579.00;;;;5032538;28;20662;-75
2023/03/06 01:59:11;;;;;;;5.50;4.53;;;;;9.10;100588.00;;;;5042818;28;20192;-75
2023/03/06 02:01:40;;;;;;;6.40;4.68;;;;;9.10;100587.00;;;;5038663;28;20211;-75
2023/03/06 02:04:08;;;;;;;7.95;4.72;;;;;9.00;100583.00;;;;5040184;28;20688;-75
2023/03/06 02:06:41;;;;;;;6.43;4.78;;;;;9.00;100577.00;;;;5042579;28;20236;-75
2023/03/06 02:09:11;;;;;;;8.77;5.63;;;;;9.00;100568.00;;;;5048622;28;20291;-75
2023/03/06 02:11:42;;;;;;;6.40;4.90;;;;;9.00;100568.00;;;;5047453;28;20200;-75
2023/03/06 02:14:12;;;;;;;7.15;5.32;;;;;8.90;100565.00;;;;5041061;28;20207;-75
2023/03/06 02:16:40;;;;;;;6.40;4.88;;;;;8.90;100566.00;;;;5048006;28;20204;-75
2023/03/06 02:19:21;;;;;;;7.03;5.07;;;;;8.90;100560.00;;;;5048683;28;20227;-75
2023/03/06 02:21:49;;;;;;;6.57;4.88;;;;;8.90;100556.00;;;;5039510;28;20200;-75
2023/03/06 02:24:32;;;;;;;8.23;6.10;;;;;8.80;100562.00;;;;5049556;28;20206;-75
2023/03/06 02:27:03;;;;;;;7.53;5.15;;;;;8.80;100557.00;;;;5047969;28;20219;-75
2023/03/06 02:29:31;;;;;;;6.55;4.80;;;;;8.80;100555.00;;;;5047196;28;20208;-75
2023/03/06 02:31:58;;;;;;;5.63;4.90;;;;;8.70;100558.00;;;;5045174;28;20200;-75
2023/03/06 02:34:57;;;;;;;11.40;5.53;;;;;8.60;100550.00;;;;5048235;28;20201;-75
2023/03/06 02:37:26;;;;;;;6.88;4.55;;;;;8.70;100548.00;;;;5014818;28;20204;-75
2023/03/06 02:40:01;;;;;;;6.60;4.88;;;;;8.60;100546.00;;;;5039405;28;20673;-75
2023/03/06 02:42:30;;;;;;;7.68;5.35;;;;;8.60;100548.00;;;;5036359;28;20203;-75
2023/03/06 02:45:01;;;;;;;6.85;5.05;;;;;8.60;100540.00;;;;5049730;28;20227;-75
2023/03/06 02:47:28;;;;;;;6.90;5.15;;;;;8.60;100537.00;;;;5050754;28;20923;-75
2023/03/06 02:49:56;;;;;;;8.02;5.65;;;;;8.50;100544.00;;;;5051276;28;20198;-75
2023/03/06 02:52:23;;;;;;;6.35;4.82;;;;;8.50;100537.00;;;;5059008;28;20206;-75
2023/03/06 02:54:50;;;;;;;7.47;5.20;;;;;8.50;100526.00;;;;5044775;28;20571;-75
2023/03/06 02:57:17;;;;;;;8.68;5.88;;;;;8.50;100519.00;;;;5048187;28;20199;-75
2023/03/06 02:59:46;;;;;;;7.93;5.60;;;;;8.50;100516.00;;;;5048542;28;20204;-75
2023/03/06 03:02:13;;;;;;;7.60;5.60;;;;;8.50;100514.00;;;;5051905;28;20193;-75
2023/03/06 03:04:41;;;;;;;7.75;5.38;;;;;8.50;100497.00;;;;5043962;28;20200;-75
2023/03/06 03:07:08;;;;;;;6.18;4.82;;;;;8.50;100499.00;;;;5050400;28;20244;-75
2023/03/06 03:09:36;;;;;;;7.05;5.32;;;;;8.50;100499.00;;;;5048210;28;20203;-75
2023/03/06 03:12:04;;;;;;;5.85;5.07;;;;;8.50;100501.00;;;;5043088;28;20250;-75
2023/03/06 03:14:32;;;;;;;6.47;4.90;;;;;8.60;100485.00;;;;5037021;28;20211;-75
2023/03/06 03:17:01;;;;;;;5.93;4.63;;;;;8.60;100486.00;;;;5047440;28;20203;-75
2023/03/06 03:19:29;;;;;;;5.70;4.50;;;;;8.60;100482.00;;;;5057984;28;20223;-75
2023/03/06 03:21:56;;;;;;;5.50;4.53;;;;;8.60;100482.00;;;;5056957;28;20206;-75
2023/03/06 03:24:23;;;;;;;7.65;5.30;;;;;8.60;100482.00;;;;5047047;28;20215;-75
2023/03/06 03:26:51;;;;;;;6.28;4.88;;;;;8.70;100469.00;;;;5046726;28;20202;-75
2023/03/06 03:29:19;;;;;;;7.28;5.15;;;;;8.70;100476.00;;;;5032640;28;20199;-75
2023/03/06 03:31:46;;;;;;;7.15;4.68;;;;;8.70;100480.00;;;;5048974;28;20192;-75
2023/03/06 03:34:15;;;;;;;5.57;4.72;;;;;8.70;100476.00;;;;5029785;28;20204;-75
2023/03/06 03:36:43;;;;;;;6.75;4.97;;;;;8.80;100471.00;;;;5060042;28;20195;-75
2023/03/06 03:39:10;;;;;;;6.00;4.85;;;;;8.80;100467.00;;;;5040262;28;20196;-75
2023/03/06 03:41:38;;;;;;;6.93;5.10;;;;;8.80;100469.00;;;;5049510;28;20188;-75
2023/03/06 03:44:05;;;;;;;6.13;4.90;;;;;8.80;100461.00;;;;5046958;28;20195;-75
2023/03/06 03:46:32;;;;;;;6.45;5.03;;;;;8.80;100457.00;;;;5034322;28;20586;-75
2023/03/06 03:49:00;;;;;;;5.85;4.80;;;;;8.90;100463.00;;;;5047464;28;20592;-75
2023/03/06 03:51:28;;;;;;;6.95;5.20;;;;;8.90;100452.00;;;;5048572;28;20195;-76
2023/03/06 03:53:56;;;;;;;5.50;4.57;;;;;8.90;100449.00;;;;5040159;28;20581;-76
2023/03/06 03:56:24;;;;;;;6.78;4.97;;;;;9.00;100449.00;;;;5045733;28;20227;-75
2023/03/06 03:58:52;;;;;;;6.72;5.22;;;;;9.00;100452.00;;;;5045955;28;20708;-75
2023/03/06 04:01:19;;;;;;;7.85;5.57;;;;;9.00;100456.00;;;;5042206;28;20200;-75
2023/03/06 04:03:47;;;;;;;5.93;4.78;;;;;9.00;100450.00;;;;5037906;28;20207;-75
2023/03/06 04:06:14;;;;;;;6.22;5.13;;;;;9.10;100440.00;;;;5048539;28;20208;-75
2023/03/06 04:08:43;;;;;;;9.90;5.47;;;;;9.10;100440.00;;;;5051402;28;20315;-75
2023/03/06 04:11:11;;;;;;;7.28;5.43;;;;;9.10;100439.00;;;;5048296;28;20211;-75
2023/03/06 04:13:38;;;;;;;7.22;5.63;;;;;9.20;100436.00;;;;5048600;28;20200;-75
2023/03/06 04:16:06;;;;;;;7.13;5.30;;;;;9.20;100437.00;;;;5047106;28;20200;-75
2023/03/06 04:18:36;;;;;;;6.90;4.88;;;;;9.20;100440.00;;;;5043423;28;20208;-75
2023/03/06 04:21:03;;;;;;;7.45;5.05;;;;;9.30;100439.00;;;;5038045;28;20197;-75
2023/03/06 04:23:31;;;;;;;6.47;5.10;;;;;9.30;100435.00;;;;5042252;28;20203;-75
2023/03/06 04:25:59;;;;;;;7.43;5.05;;;;;9.30;100433.00;;;;5041707;28;20692;-75
2023/03/06 04:28:27;;;;;;;6.38;4.78;;;;;9.30;100439.00;;;;5041548;28;20227;-75
2023/03/06 04:30:54;;;;;;;6.72;5.13;;;;;9.30;100435.00;;;;5045832;28;20656;-75
2023/03/06 04:33:21;;;;;;;6.47;4.60;;;;;9.40;100426.00;;;;5044158;28;20195;-75
2023/03/06 04:35:49;;;;;;;6.15;4.90;;;;;9.40;100423.00;;;;5039893;28;20207;-75
2023/03/06 04:38:16;;;;;;;8.20;5.40;;;;;9.40;100419.00;;;;5046419;28;20195;-75
2023/03/06 04:40:43;;;;;;;6.90;5.15;;;;;9.40;100420.00;;;;5045807;28;20206;-75
2023/03/06 04:43:12;;;;;;;6.97;4.53;;;;;9.50;100421.00;;;;5037546;28;20191;-75
2023/03/06 04:45:39;;;;;;;5.32;4.25;;;;;9.50;100420.00;;;;5028489;28;20203;-75
2023/03/06 04:48:07;;;;;;;6.43;4.90;;;;;9.50;100418.00;;;;5044780;28;20223;-75
2023/03/06 04:50:36;;;;;;;5.22;4.10;;;;;9.50;100408.00;;;;5047999;28;20208;-75
2023/03/06 04:53:04;;;;;;;5.85;4.45;;;;;9.60;100410.00;;;;5043281;28;20203;-75
2023/03/06 04:55:31;;;;;;;5.85;3.92;;;;;9.60;100414.00;;;;5035859;28;20214;-75
2023/03/06 04:57:58;;;;;;;5.68;4.15;;;;;9.60;100411.00;;;;5046077;28;20204;-75
2023/03/06 05:00:30;;;;;;;4.68;3.83;;;;;9.50;100412.00;;;;5045487;28;20195;-75
2023/03/06 05:02:58;;;;;;;6.70;4.53;;;;;9.60;100404.00;;;;5033645;28;20265;-75
2023/03/06 05:05:26;;;;;;;7.47;4.63;;;;;9.60;100398.00;;;;5045137;28;20199;-75
2023/03/06 05:07:54;;;;;;;5.00;4.07;;;;;9.60;100407.00;;;;5044181;28;20604;-75
2023/03/06 05:10:21;;;;;;;4.57;3.38;;;;;9.60;100404.00;;;;5034464;28;20193;-75
2023/03/06 05:12:49;;;;;;;6.65;3.67;;;;;9.60;100411.00;;;;5044757;28;20573;-75
2023/03/06 05:15:16;;;;;;;5.47;4.18;;;;;9.60;100412.00;;;;5059952;28;20696;-75
2023/03/06 05:17:46;;;;;;;5.65;4.03;;;;;9.60;100411.00;;;;5047391;28;20191;-75
2023/03/06 05:20:16;;;;;;;4.68;3.30;;;;;9.60;100406.00;;;;5047512;28;20599;-75
2023/03/06 05:22:43;;;;;;;5.72;3.63;;;;;9.70;100400.00;;;;5039137;28;20200;-76
2023/03/06 05:25:11;;;;;;;5.13;3.58;;;;;9.70;100410.00;;;;5042324;28;20661;-75
2023/03/06 05:27:38;;;;;;;4.60;3.00;;;;;9.70;100410.00;;;;5044128;28;20596;-75
2023/03/06 05:30:07;;;;;;;4.82;3.20;;;;;9.70;100400.00;;;;5037005;28;20761;-76
2023/03/06 05:32:37;;;;;;;4.90;3.33;;;;;9.70;100407.00;;;;5046750;28;20210;-76
2023/03/06 05:35:06;;;;;;;3.70;2.53;;;;;9.70;100396.00;;;;5042850;28;20199;-76
2023/03/06 05:37:34;;;;;;;3.65;2.95;;;;;9.70;100389.00;;;;5040393;28;20196;-76
2023/03/06 05:40:04;;;;;;;3.83;2.90;;;;;9.70;100391.00;;;;5044459;28;20211;-76
2023/03/06 05:42:32;;;;;;;2.92;2.40;;;;;9.70;100396.00;;;;5048402;28;20199;-76
2023/03/06 05:45:01;;;;;;;3.60;2.75;;;;;9.70;100398.00;;;;5038428;28;20188;-76
2023/03/06 05:47:28;;;;;;;3.25;2.70;;;;;9.70;100395.00;;;;5050476;28;20200;-76
2023/03/06 05:49:55;;;;;;;3.38;2.75;;;;;9.80;100387.00;;;;5050118;28;20597;-76
2023/03/06 05:52:24;;;;;;;4.47;2.80;;;;;9.80;100386.00;;;;5041036;28;20196;-76
2023/03/06 05:54:53;;;;;;;5.20;2.78;;;;;9.80;100394.00;;;;5050381;28;20210;-76
2023/03/06 05:57:23;;;;;;;4.38;3.05;;;;;9.80;100387.00;;;;5048565;28;20192;-76
2023/03/06 05:59:51;;;;;;;2.55;2.20;;;;;9.80;100380.00;;;;5046680;28;20200;-76
2023/03/06 06:02:19;;;;;;;3.15;2.13;;;;;9.80;100384.00;;;;5048360;28;20203;-76
2023/03/06 06:04:46;;;;;;;5.82;3.15;;;;;9.80;100382.00;;;;5049252;28;20207;-76
2023/03/06 06:07:15;;;;;;;5.60;2.47;;;;;9.80;100383.00;;;;5040743;28;20235;-76
2023/03/06 06:09:45;;;;;;;2.67;2.33;;;;;9.80;100382.00;;;;5045728;28;20223;-76
2023/03/06 06:12:13;;;;;;;3.17;2.55;;;;;9.80;100387.00;;;;5049717;28;20211;-76
2023/03/06 06:14:40;;;;;;;2.53;2.03;;;;;9.80;100388.00;;;;5048942;28;20199;-76
2023/03/06 06:17:08;;;;;;;3.45;2.80;;;;;9.80;100390.00;;;;5056680;28;20191;-76
2023/03/06 06:19:35;;;;;;;4.28;2.30;;;;;9.80;100386.00;;;;5043932;28;20212;-76
2023/03/06 06:22:03;;;;;;;6.68;3.35;;;;;9.80;100388.00;;;;5042506;28;20205;-76
2023/03/06 06:24:31;;;;;;;3.58;2.78;;;;;9.80;100384.00;;;;5043533;28;20250;-76
2023/03/06 06:27:00;;;;;;;3.78;2.90;;;;;9.80;100391.00;;;;5045420;28;20203;-76
2023/03/06 06:29:29;;;;;;;5.93;2.78;;;;;9.80;100389.00;;;;5044624;28;20238;-76
2023/03/06 06:31:57;;;;;;;3.35;2.63;;;;;9.80;100391.00;;;;5045418;28;20200;-75
2023/03/06 06:34:24;;;;;;;3.30;2.63;;;;;9.80;100391.00;;;;5038534;28;20211;-76
2023/03/06 06:36:53;;;;;;;4.10;2.95;;;;;9.80;100383.00;;;;5046466;28;20200;-76
2023/03/06 06:39:21;;;;;;;3.83;2.92;;;;;9.80;100391.00;;;;5048409;28;20689;-75
2023/03/06 06:41:50;;;;;;;4.03;2.75;;;;;9.80;100392.00;;;;5045987;28;20199;-75
2023/03/06 06:44:19;;;;;;;3.63;3.17;;;;;9.80;100390.00;;;;5048181;28;20200;-75
2023/03/06 06:46:49;;;;;;;3.58;2.80;;;;;9.90;100393.00;;;;5057517;28;20203;-75
2023/03/06 06:49:16;;;;;;;4.95;3.42;;;;;9.90;100395.00;;;;5048647;28;20226;-75
2023/03/06 06:51:44;;;;;;;4.30;3.03;;;;;9.90;100402.00;;;;5040769;28;20232;-76
2023/03/06 06:54:12;;;;;;;3.95;3.05;;;;;9.90;100409.00;;;;5035408;28;20195;-75
2023/03/06 06:56:39;;;;;;;4.43;3.17;;;;;10.00;100402.00;;;;5041832;28;20955;-75
2023/03/06 06:59:07;;;;;;;3.55;3.08;;;;;10.00;100409.00;;;;5045326;28;20202;-75
2023/03/06 07:01:35;;;;;;;3.25;2.83;;;;;10.00;100415.00;;;;5042585;28;20318;-75
2023/03/06 07:04:03;;;;;;;3.58;3.20;;;;;10.00;100412.00;;;;5046675;28;20203;-75
2023/03/06 07:06:30;;;;;;;3.22;2.80;;;;;10.10;100418.00;;;;5049097;28;20230;-75
2023/03/06 07:08:57;;;;;;;3.30;2.58;;;;;10.10;100416.00;;;;5046877;28;20227;-75
2023/03/06 07:11:25;;;;;;;3.05;2.63;;;;;10.10;100412.00;;;;5049547;28;20211;-75
2023/03/06 07:13:52;;;;;;;3.13;2.58;;;;;10.10;100421.00;;;;5047790;28;20211;-75
2023/03/06 07:16:19;;;;;;;3.03;2.55;;;;;10.20;100425.00;;;;5048926;28;20222;-75
2023/03/06 07:18:48;;;;;;;3.50;2.10;;;;;10.20;100417.00;;;;5049269;28;20215;-75
2023/03/06 07:21:15;;;;;;;2.22;1.73;;;;;10.20;100416.00;;;;5049554;28;20202;-75
2023/03/06 07:23:43;;;;;;;3.10;1.92;;;;;10.20;100420.00;;;;5046100;28;20203;-75
2023/03/06 07:26:11;;;;;;;3.05;1.88;;;;;10.20;100412.00;;;;5038003;28;20235;-75
2023/03/06 07:28:38;;;;;;;2.47;1.77;;;;;10.30;100421.00;;;;5029194;28;20224;-75
2023/03/06 07:31:10;;;;;;;2.85;1.63;;;;;10.20;100418.00;;;;5029384;28;20207;-75
2023/03/06 07:33:37;;;;;;;2.00;1.50;;;;;10.30;100413.00;;;;5039156;28;20203;-75
2023/03/06 07:36:09;;;;;;;1.80;1.20;;;;;10.30;100414.00;;;;5048083;28;20207;-75
2023/03/06 07:38:36;;;;;;;1.90;1.27;;;;;10.30;100413.00;;;;5047209;28;20206;-75
2023/03/06 07:41:04;;;;;;;0.85;0.80;;;;;10.40;100417.00;;;;5048949;28;20203;-75
2023/03/06 07:43:31;;;;;;;1.67;1.33;;;;;10.40;100420.00;;;;5035103;28;20298;-75
2023/03/06 07:46:00;;;;;;;1.17;0.90;;;;;10.40;100416.00;;;;5044954;28;20203;-75
2023/03/06 07:48:28;;;;;;;3.10;0.95;;;;;10.40;100410.00;;;;5048453;28;20220;-75
2023/03/06 07:50:57;;;;;;;1.35;0.80;;;;;10.50;100414.00;;;;5046891;28;20207;-75
2023/03/06 07:53:25;;;;;;;2.13;1.27;;;;;10.50;100413.00;;;;5048969;28;20202;-75
2023/03/06 07:55:53;;;;;;;1.77;1.10;;;;;10.60;100414.00;;;;5049072;28;20580;-75
2023/03/06 07:58:20;;;;;;;2.58;0.80;;;;;10.60;100408.00;;;;5045815;28;20199;-75
2023/03/06 08:00:48;;;;;;;1.55;0.82;;;;;10.70;100416.00;;;;5045940;28;20195;-75
2023/03/06 08:03:16;;;;;;;1.77;0.70;;;;;10.70;100413.00;;;;5040908;28;20284;-75
2023/03/06 08:05:44;;;;;;;1.05;0.80;;;;;10.80;100412.00;;;;5055005;28;20293;-75
2023/03/06 08:08:12;;;;;;;1.00;0.43;;;;;10.80;100415.00;;;;5048324;28;20231;-75
2023/03/06 08:10:41;;;;;;;1.10;0.55;;;;;10.80;100417.00;;;;5065348;28;20206;-75
2023/03/06 08:13:08;;;;;;;0.77;0.57;;;;;10.80;100425.00;;;;5046621;28;20199;-75
2023/03/06 08:15:35;;;;;;;0.80;0.60;;;;;10.80;100431.00;;;;5046757;28;20200;-75
2023/03/06 08:18:03;;;;;;;0.75;0.40;;;;;10.90;100432.00;;;;5040712;28;20211;-75
2023/03/06 08:20:30;;;;;;;1.05;0.75;;;;;10.90;100428.00;;;;5047020;28;21049;-75
2023/03/06 08:22:57;;;;;;;1.08;0.70;;;;;10.90;100428.00;;;;5036941;28;20199;-75
2023/03/06 08:25:24;;;;;;;1.80;0.60;;;;;10.90;100428.00;;;;5048441;28;20203;-75
2023/03/06 08:27:53;;;;;;;1.00;0.47;;;;;10.90;100426.00;;;;5042792;28;20569;-75
2023/03/06 08:30:21;;;;;;;1.05;0.60;;;;;10.90;100422.00;;;;5047576;28;20220;-75
2023/03/06 08:32:49;;;;;;;0.95;0.60;;;;;10.90;100426.00;;;;5046424;28;20249;-75
2023/03/06 08:35:16;;;;;;;0.88;0.43;;;;;11.00;100418.00;;;;5045461;28;20195;-75
2023/03/06 08:37:43;;;;;;;0.80;0.50;;;;;11.00;100419.00;;;;5044283;28;20196;-75
2023/03/06 08:40:12;;;;;;;0.85;0.32;;;;;11.00;100422.00;;;;5043985;28;20203;-76
2023/03/06 08:42:40;;;;;;;2.38;0.60;;;;;11.00;100421.00;;;;5038206;28;20212;-76
2023/03/06 08:45:10;;;;;;;1.05;0.68;;;;;11.10;100417.00;;;;5035891;28;20234;-76
2023/03/06 08:47:37;;;;;;;1.50;0.52;;;;;11.10;100420.00;;;;5044826;28;20202;-75
2023/03/06 08:50:05;;;;;;;0.93;0.40;;;;;11.10;100418.00;;;;5046216;28;20231;-75
2023/03/06 08:52:32;;;;;;;0.60;0.50;;;;;11.20;100419.00;;;;5043781;28;21408;-75
2023/03/06 08:55:02;;;;;;;1.13;0.82;;;;;11.20;100417.00;;;;5048865;28;20198;-75
2023/03/06 08:57:29;;;;;;;0.90;0.43;;;;;11.20;100419.00;;;;5033348;28;20203;-75
2023/03/06 08:59:57;;;;;;;0.60;0.40;;;;;11.30;100421.00;;;;5053391;28;20202;-75
2023/03/06 09:02:25;;;;;;;1.33;0.40;;;;;11.30;100429.00;;;;5045420;28;20205;-75
2023/03/06 09:04:52;;;;;;;0.60;0.43;;;;;11.30;100421.00;;;;5052006;28;20211;-75
2023/03/06 09:07:20;;;;;;;0.43;0.38;;;;;11.30;100418.00;;;;5047729;28;20226;-75
2023/03/06 09:09:47;;;;;;;0.47;0.30;;;;;11.30;100419.00;;;;5047425;28;20230;-75
2023/03/06 09:12:14;;;;;;;3.30;0.73;;;;;11.40;100424.00;;;;5046276;28;20188;-76
2023/03/06 09:14:42;;;;;;;1.20;0.47;;;;;11.40;100427.00;;;;5047222;28;20204;-75
2023/03/06 09:17:09;;;;;;;0.40;0.30;;;;;11.40;100421.00;;;;5048079;28;20211;-75
2023/03/06 09:19:38;;;;;;;2.72;0.32;;;;;11.40;100422.00;;;;5068691;28;20219;-75
2023/03/06 09:22:05;;;;;;;0.70;0.30;;;;;11.50;100415.00;;;;5038678;28;20333;-75
2023/03/06 09:24:32;;;;;;;0.60;0.40;;;;;11.60;100413.00;;;;5045943;28;20208;-75
2023/03/06 09:27:00;;;;;;;2.45;0.50;;;;;11.60;100411.00;;;;5049238;28;20199;-75
2023/03/06 09:29:28;;;;;;;0.50;0.40;;;;;11.70;100420.00;;;;5055223;28;20475;-75
2023/03/06 09:31:55;;;;;;;0.25;0.17;;;;;11.80;100416.00;;;;5055789;28;20203;-75
2023/03/06 09:34:22;;;;;;;0.50;0.30;;;;;11.80;100416.00;;;;5052996;28;20207;-75
2023/03/06 09:36:51;;;;;;;0.43;0.30;;;;;11.90;100414.00;;;;5054473;28;20192;-75
2023/03/06 09:39:18;;;;;;;0.30;0.10;;;;;12.00;100411.00;;;;5051437;28;20211;-75
2023/03/06 09:41:48;;;;;;;0.32;0.20;;;;;12.10;100414.00;;;;5043381;28;20208;-75
2023/03/06 09:44:18;;;;;;;0.65;0.20;;;;;12.20;100410.00;;;;5047682;28;20200;-75
2023/03/06 09:46:59;;;;;;;0.60;0.52;;;;;12.20;100405.00;;;;5058191;28;20199;-75
2023/03/06 09:49:41;;;;;;;0.20;0.10;;;;;12.20;100404.00;;;;5041272;28;20609;-75
2023/03/06 09:52:23;;;;;;;0.35;0.20;;;;;12.30;100406.00;;;;5048044;28;20201;-75
2023/03/06 09:54:54;;;;;;;0.63;0.30;;;;;12.40;100412.00;;;;5035442;28;20198;-75
2023/03/06 09:57:26;;;;;;;0.32;0.17;;;;;12.50;100411.00;;;;5058407;28;20229;-75
2023/03/06 09:59:57;;;;;;;0.80;0.20;;;;;12.60;100413.00;;;;5048774;28;20218;-75
2023/03/06 10:02:32;;;;;;;1.20;0.20;;;;;12.70;100412.00;;;;5056221;28;20345;-75
2023/03/06 10:05:02;;;;;;;1.10;0.28;;;;;12.80;100407.00;;;;5037500;28;20230;-75
2023/03/06 10:07:42;;;;;;;1.20;0.25;;;;;12.90;100414.00;;;;5046473;28;20228;-75
2023/03/06 10:10:18;;;;;;;0.88;0.10;;;;;12.90;100420.00;;;;5047133;28;20234;-75
2023/03/06 10:12:52;;;;;;;1.75;0.20;;;;;13.00;100420.00;;;;5054033;28;20222;-75
2023/03/06 10:15:24;;;;;;;0.38;0.20;;;;;13.10;100410.00;;;;5049928;28;20188;-75
2023/03/06 10:17:52;;;;;;;1.23;0.20;;;;;13.20;100410.00;;;;5050973;28;20202;-75
2023/03/06 10:20:22;;;;;;;1.00;0.20;;;;;13.30;100420.00;;;;5047894;28;20226;-75
2023/03/06 10:23:19;;;;;;;0.60;0.30;;;;;13.20;100417.00;;;;5048215;28;20226;-75
2023/03/06 10:25:54;;;;;;;0.13;0.10;;;;;13.30;100410.00;;;;5045838;28;20199;-75
2023/03/06 10:28:27;;;;;;;1.13;0.20;;;;;13.40;100405.00;;;;5042056;28;20237;-75
2023/03/06 10:31:01;;;;;;;1.00;0.10;;;;;13.40;100407.00;;;;5049323;28;20231;-75
2023/03/06 10:33:40;;;;;;;1.55;0.20;;;;;13.50;100404.00;;;;5042118;28;20203;-75
2023/03/06 10:36:14;;;;;;;0.20;0.10;;;;;13.60;100416.00;;;;5045447;28;20204;-75
2023/03/06 10:38:44;;;;;;;0.95;0.20;;;;;13.60;100410.00;;;;5042459;28;20204;-75
2023/03/06 10:41:24;;;;;;;0.10;0.03;;;;;13.60;100414.00;;;;5038553;28;20203;-75
2023/03/06 10:44:18;;;;;;;0.95;0.10;;;;;13.60;100410.00;;;;5045501;28;20205;-75
2023/03/06 10:46:47;;;;;;;0.52;0.10;;;;;13.70;100416.00;;;;5031551;28;20203;-75
2023/03/06 10:49:31;;;;;;;0.57;0.20;;;;;13.70;100422.00;;;;5043329;28;20201;-75
2023/03/06 10:52:01;;;;;;;0.40;0.20;;;;;13.90;100415.00;;;;5042429;28;20203;-75
2023/03/06 10:54:33;;;;;;;0.40;0.20;;;;;13.90;100413.00;;;;5053692;28;20199;-75
2023/03/06 10:57:19;;;;;;;0.90;0.30;;;;;13.90;100409.00;;;;5054436;28;20195;-73
2023/03/06 10:59:54;;;;;;;0.38;0.15;;;;;14.00;100406.00;;;;5043487;28;20286;-73
2023/03/06 11:02:28;;;;;;;1.02;0.52;;;;;14.00;100410.00;;;;5050015;28;20195;-73
2023/03/06 11:04:57;;;;;;;0.50;0.38;;;;;14.10;100406.00;;;;5046119;28;20203;-74
2023/03/06 11:07:26;;;;;;;1.42;0.40;;;;;14.00;100403.00;;;;5053326;28;20232;-74
2023/03/06 11:10:17;;;;;;;1.48;0.47;;;;;14.00;100408.00;;;;5047663;28;20242;-74
2023/03/06 11:12:58;;;;;;;0.82;0.30;;;;;14.00;100400.00;;;;5041301;28;20199;-74
2023/03/06 11:15:26;;;;;;;0.38;0.30;;;;;14.10;100399.00;;;;5048776;28;20199;-74
2023/03/06 11:18:04;;;;;;;0.30;0.20;;;;;14.00;100400.00;;;;5046906;28;20199;-74
2023/03/06 11:20:40;;;;;;;1.13;0.40;;;;;14.10;100390.00;;;;5046699;28;20212;-74
2023/03/06 11:23:13;;;;;;;1.70;0.60;;;;;14.20;100393.00;;;;5045874;28;20204;-74
2023/03/06 11:25:47;;;;;;;0.47;0.30;;;;;14.30;100393.00;;;;5042297;28;20204;-75
2023/03/06 11:28:22;;;;;;;0.98;0.40;;;;;14.30;100394.00;;;;5047800;28;20253;-74
2023/03/06 11:30:54;;;;;;;0.40;0.30;;;;;14.40;100395.00;;;;5044753;28;20254;-74
2023/03/06 11:33:30;;;;;;;1.27;0.43;;;;;14.40;100385.00;;;;5057808;28;20199;-74
2023/03/06 11:36:04;;;;;;;0.73;0.47;;;;;14.50;100385.00;;;;5053209;28;20214;-74
2023/03/06 11:38:40;;;;;;;0.75;0.47;;;;;14.40;100381.00;;;;5048416;28;20200;-74
2023/03/06 11:41:18;;;;;;;1.42;0.40;;;;;14.50;100374.00;;;;5044918;28;20215;-74
2023/03/06 11:43:52;;;;;;;0.55;0.40;;;;;14.50;100364.00;;;;5060967;28;20194;-74
2023/03/06 11:46:24;;;;;;;1.23;0.50;;;;;14.60;100369.00;;;;5045843;28;20207;-74
2023/03/06 11:48:57;;;;;;;0.60;0.40;;;;;14.60;100366.00;;;;5047954;28;20199;-74
2023/03/06 11:51:28;;;;;;;1.38;0.50;;;;;14.70;100362.00;;;;5049953;28;20223;-75
2023/03/06 11:53:58;;;;;;;1.27;0.47;;;;;14.80;100361.00;;;;5055072;28;20206;-74
2023/03/06 11:56:35;;;;;;;4.30;0.82;;;;;14.80;100368.00;;;;5048976;28;20196;-74
2023/03/06 11:59:30;;;;;;;1.77;0.60;;;;;14.80;100364.00;;;;5045746;28;20572;-74
2023/03/06 12:02:05;;;;;;;0.98;0.68;;;;;14.80;100363.00;;;;5021858;28;20208;-74
2023/03/06 12:04:45;;;;;;;0.95;0.60;;;;;14.80;100367.00;;;;5040864;28;20519;-75
2023/03/06 12:07:22;;;;;;;2.33;0.90;;;;;14.80;100354.00;;;;5047962;28;20600;-74
2023/03/06 12:09:55;;;;;;;1.58;0.75;;;;;14.80;100352.00;;;;5047320;28;20222;-74
2023/03/06 12:12:37;;;;;;;0.40;0.40;;;;;14.70;100350.00;;;;5050547;28;20204;-75
2023/03/06 12:15:17;;;;;;;3.67;0.50;;;;;14.80;100345.00;;;;5045173;28;20236;-74
2023/03/06 12:18:02;;;;;;;1.65;0.52;;;;;14.80;100345.00;;;;5047354;28;20863;-74
2023/03/06 12:20:42;;;;;;;1.45;0.65;;;;;14.90;100346.00;;;;5046853;28;20215;-74
2023/03/06 12:23:20;;;;;;;1.60;0.65;;;;;14.90;100343.00;;;;5048584;28;20191;-74
2023/03/06 12:25:53;;;;;;;1.58;0.68;;;;;15.00;100344.00;;;;5047649;28;20200;-74